Date,TemperatureHighF,TemperatureAvgF,TemperatureLowF,DewpointHighF,DewpointAvgF,DewpointLowF,HumidityHigh,HumidityAvg,HumidityLow,PressureMaxIn,PressureMinIn,WindSpeedMaxMPH,WindSpeedAvgMPH,GustSpeedMaxMPH,PrecipitationSumIn
2012-1-1,48,40,32,44,33,18,96,78,46,0.00,40.00,11,4,27,0.10
2012-1-2,37,27,19,22,13,4,80,55,44,0.00,40.00,9,6,28,0.01
2012-1-3,22,18,16,11,5,-1,72,57,40,0.00,40.00,10,6,24,0.00
2012-1-4,35,25,14,23,8,1,65,50,31,0.00,40.00,9,4,29,0.00
2012-1-5,46,38,33,23,19,15,61,46,34,0.00,40.00,9,5,23,0.00
2012-1-6,62,50,40,25,21,18,43,33,22,0.00,40.00,9,6,26,0.00
2012-1-7,59,50,43,47,32,18,72,52,28,0.00,40.00,11,5,26,0.01
2012-1-8,53,41,33,27,19,13,64,43,25,0.00,40.00,4,2,12,0.01
2012-1-9,37,34,32,35,26,18,97,77,46,0.00,40.00,5,2,15,0.04
2012-1-10,51,41,34,28,25,23,67,54,39,0.00,40.00,7,4,17,0.15
2012-1-11,40,36,34,39,31,23,98,83,63,0.00,40.00,4,2,15,0.71
2012-1-12,53,44,38,45,40,35,98,87,69,0.00,40.00,11,5,27,0.90
2012-1-13,35,25,21,31,13,9,89,62,50,0.00,40.00,14,8,31,0.91
2012-1-14,34,26,21,15,12,10,69,58,41,0.00,40.00,8,5,21,0.01
2012-1-15,33,26,22,16,12,7,72,56,38,0.00,40.00,5,3,14,0.00
2012-1-16,40,28,17,31,18,9,87,65,45,0.00,40.00,6,4,13,0.04
2012-1-17,54,44,34,49,38,28,97,81,60,0.00,40.00,9,4,27,0.55
2012-1-18,47,32,21,33,17,9,65,54,41,0.00,40.00,9,5,22,0.33
2012-1-19,39,27,16,21,13,8,78,56,34,0.00,40.00,7,4,21,0.00
2012-1-20,45,38,32,31,22,10,96,54,32,0.00,40.00,9,4,22,0.08
2012-1-21,40,35,32,39,34,31,98,97,94,0.00,40.00,7,3,13,0.93
2012-1-22,33,30,27,32,27,24,96,90,81,0.00,40.00,4,2,9,0.02
2012-1-23,39,35,31,39,34,30,99,98,96,0.00,40.00,5,2,11,0.29
2012-1-24,55,46,38,44,32,24,99,62,31,0.00,40.00,7,5,20,0.01
2012-1-25,55,43,33,32,28,23,79,56,34,0.00,40.00,6,3,14,0.00
2012-1-26,56,49,41,52,39,29,91,68,51,0.00,40.00,7,3,14,0.02
2012-1-27,56,48,34,55,40,23,98,75,54,0.00,40.00,10,7,29,0.35
2012-1-28,48,37,29,35,24,10,80,60,37,0.00,40.00,9,5,28,0.03
2012-1-29,44,34,24,14,9,5,51,36,21,0.00,40.00,10,6,27,0.00
2012-1-30,51,37,27,19,12,2,50,35,26,0.00,40.00,8,4,23,0.00
2012-1-31,65,53,44,23,20,18,38,28,18,0.00,40.00,10,6,30,0.00
2012-2-1,61,55,51,47,36,14,85,53,19,0.00,40.00,11,6,25,0.04
2012-2-2,54,49,40,49,35,22,98,64,31,0.00,40.00,9,5,22,0.32
2012-2-3,55,42,30,27,23,18,79,49,25,0.00,40.00,5,3,10,0.06
2012-2-4,44,38,35,35,28,22,97,68,50,0.00,40.00,4,2,7,0.12
2012-2-5,36,34,31,35,33,30,98,97,95,0.00,40.00,3,2,7,0.14
2012-2-6,42,33,24,37,30,22,96,88,64,0.00,40.00,7,3,18,0.01
2012-2-7,58,42,33,28,25,21,68,51,30,0.00,40.00,6,3,17,0.00
2012-2-8,39,34,32,33,26,22,93,73,53,0.00,40.00,7,2,15,0.10
2012-2-9,44,34,28,23,19,16,70,55,34,0.00,40.00,6,4,15,0.04
2012-2-10,40,33,27,32,23,18,87,67,50,0.00,40.00,5,3,14,0.00
2012-2-11,35,27,12,30,14,-4,86,59,38,0.00,40.00,13,6,35,0.01
2012-2-12,28,19,11,8,1,-5,61,46,31,0.00,40.00,12,7,32,0.01
2012-2-13,46,32,22,12,10,7,62,42,20,0.00,40.00,8,4,19,0.00
2012-2-14,46,39,32,37,22,10,90,52,36,0.00,40.00,7,4,14,0.00
2012-2-15,58,45,34,33,26,23,76,51,30,0.00,40.00,6,4,19,0.00
2012-2-16,49,44,40,45,37,24,98,80,44,0.00,40.00,6,4,17,0.39
2012-2-17,52,44,36,39,27,19,74,52,32,0.00,40.00,6,4,19,0.01
2012-2-18,57,44,31,28,21,17,68,44,22,0.00,40.00,10,4,24,0.00
2012-2-19,43,34,28,28,24,17,95,69,45,0.00,40.00,6,3,10,0.00
2012-2-20,51,36,27,28,23,19,95,62,37,0.00,40.00,5,3,12,0.42
2012-2-21,47,36,27,31,25,20,78,66,47,0.00,40.00,11,4,21,0.12
2012-2-22,57,48,39,38,33,23,76,58,29,0.00,40.00,12,7,25,0.00
2012-2-23,64,53,44,46,41,37,82,65,41,0.00,40.00,13,6,26,0.00
2012-2-24,64,51,34,56,42,20,96,74,45,0.00,40.00,13,6,31,0.24
2012-2-25,35,30,26,24,13,6,79,50,32,0.00,40.00,11,8,26,0.01
2012-2-26,50,35,22,15,12,8,57,40,20,0.00,40.00,6,4,19,0.01
2012-2-27,63,47,31,27,22,14,54,39,24,0.00,40.00,11,5,25,0.01
2012-2-28,67,50,36,22,14,6,39,26,9,0.00,40.00,6,4,20,0.00
2012-2-29,57,49,40,54,42,23,98,79,38,0.00,40.00,8,5,32,1.89
2012-3-1,65,55,47,52,33,22,87,45,22,0.00,40.00,9,7,31,0.99
2012-3-2,47,42,37,41,35,27,98,78,49,0.00,40.00,6,2,14,0.62
2012-3-3,54,46,41,49,27,11,99,55,21,0.00,40.00,9,5,24,0.38
2012-3-4,39,34,28,21,17,12,72,50,35,0.00,40.00,8,5,21,0.01
2012-3-5,38,30,26,29,19,10,93,67,44,0.00,40.00,8,5,22,0.21
2012-3-6,51,36,21,22,17,11,71,47,28,0.00,40.00,7,4,16,0.05
2012-3-7,66,48,33,38,27,16,57,44,32,0.00,40.00,9,5,24,0.00
2012-3-8,68,56,47,50,43,36,89,64,43,0.00,40.00,11,7,29,0.05
2012-3-9,53,44,36,49,25,15,86,49,22,0.00,40.00,11,6,28,0.07
2012-3-10,57,41,28,14,10,5,51,31,14,0.00,40.00,5,4,16,0.00
2012-3-11,67,49,33,25,19,-100,46,33,20,0.00,40.00,7,4,17,0.00
2012-3-12,69,55,42,52,33,22,86,45,25,0.00,40.00,7,4,17,0.00
2012-3-13,76,64,52,52,47,38,96,59,30,0.00,40.00,9,4,31,0.04
2012-3-14,81,67,55,50,40,28,71,43,16,0.00,40.00,6,3,13,0.01
2012-3-15,69,60,53,47,41,34,66,50,36,0.00,40.00,10,2,25,0.00
2012-3-16,67,57,51,56,49,43,90,76,51,0.00,40.00,7,1,14,0.01
2012-3-17,75,62,52,55,51,46,96,70,39,0.00,40.00,4,2,12,0.01
2012-3-18,73,62,56,57,54,47,93,76,50,0.00,40.00,7,4,14,0.00
2012-3-19,76,62,54,59,54,52,98,78,48,0.00,40.00,8,3,17,1.16
2012-3-20,81,63,56,59,53,-100,95,75,40,0.00,40.00,8,1,17,0.09
2012-3-21,66,59,51,58,55,50,99,88,68,0.00,40.00,4,1,9,0.29
2012-3-22,82,67,56,61,53,-100,96,66,35,0.00,40.00,9,-8,16,0.28
2012-3-23,84,69,57,57,51,46,87,58,30,0.00,40.00,7,2,16,0.00
2012-3-24,67,57,51,59,54,48,99,90,58,0.00,40.00,9,3,19,1.44
2012-3-25,60,54,50,54,51,47,98,89,68,0.00,40.00,6,2,11,0.61
2012-3-26,64,55,44,51,33,8,81,48,11,0.00,40.00,9,6,24,0.04
2012-3-27,65,45,29,24,16,10,52,33,12,0.00,40.00,6,4,15,0.00
2012-3-28,82,62,45,51,38,24,58,42,22,0.00,40.00,14,7,36,0.00
2012-3-29,71,62,54,42,31,25,45,32,19,0.00,40.00,9,6,26,0.00
2012-3-30,73,55,46,44,37,28,90,52,32,0.00,40.00,7,3,15,0.01
2012-3-31,73,62,53,50,44,36,71,53,33,0.00,40.00,8,4,18,0.01
2012-4-1,76,56,41,52,39,33,88,58,22,0.00,40.00,10,4,22,0.01
2012-4-2,71,60,55,53,40,4,81,57,7,0.00,40.00,8,5,19,0.03
2012-4-3,81,59,42,38,25,12,42,28,15,0.00,40.00,5,3,13,0.00
2012-4-4,78,67,60,53,46,36,73,48,33,0.00,40.00,11,6,23,0.05
2012-4-5,60,50,41,46,35,25,86,57,39,0.00,40.00,6,4,14,0.01
2012-4-6,63,46,37,37,25,7,88,51,11,0.00,40.00,8,4,19,0.00
2012-4-7,67,50,38,15,8,-2,30,20,7,0.00,40.00,8,4,16,0.00
2012-4-8,69,55,46,25,16,7,27,21,15,0.00,40.00,9,5,22,0.00
2012-4-9,66,56,47,31,19,12,41,24,17,0.00,40.00,13,6,30,0.00
2012-4-10,64,54,44,25,12,1,34,21,8,0.00,40.00,14,6,38,0.00
2012-4-11,43,38,33,24,19,16,60,46,35,0.00,40.00,7,5,20,0.00
2012-4-12,58,45,36,26,22,19,67,43,22,0.00,40.00,7,4,19,0.00
2012-4-13,66,53,38,30,23,20,55,34,18,0.00,40.00,7,3,14,0.00
2012-4-14,72,57,43,39,29,-100,49,37,24,0.00,40.00,7,3,15,0.00
2012-4-15,86,67,55,53,44,39,64,45,21,0.00,40.00,9,4,20,0.00
2012-4-16,87,71,58,57,51,42,84,54,21,0.00,40.00,9,5,23,0.00
2012-4-17,72,64,58,53,39,28,61,42,21,0.00,40.00,5,4,17,0.00
2012-4-18,58,48,46,47,43,28,98,85,33,0.00,40.00,4,2,8,0.89
2012-4-19,64,52,46,51,47,45,98,84,53,0.00,40.00,5,2,9,0.04
2012-4-20,75,57,42,52,48,41,98,75,42,0.00,40.00,7,3,14,0.00
2012-4-21,72,58,52,57,48,-100,95,76,38,0.00,40.00,6,3,18,0.04
2012-4-22,53,47,40,47,43,35,97,88,71,0.00,40.00,7,4,17,0.47
2012-4-23,45,40,35,35,28,18,91,64,35,0.00,40.00,9,6,32,0.46
2012-4-24,58,47,36,21,17,12,47,31,17,0.00,40.00,7,4,20,0.02
2012-4-25,68,53,41,46,28,21,87,41,20,0.00,40.00,6,3,18,0.01
2012-4-26,64,56,49,57,52,43,99,88,69,0.00,40.00,11,4,27,1.12
2012-4-27,67,55,46,50,32,21,71,45,21,0.00,40.00,7,4,22,0.02
2012-4-28,54,47,42,44,34,-100,91,64,40,0.00,40.00,6,3,14,0.08
2012-4-29,72,56,44,55,50,42,98,82,55,0.00,40.00,5,2,10,0.14
2012-4-30,62,58,55,59,53,42,98,84,59,0.00,40.00,7,3,15,0.00
2012-5-1,80,68,60,66,58,52,99,73,46,0.00,40.00,9,5,32,0.29
2012-5-2,88,72,60,62,56,51,94,60,33,0.00,40.00,9,3,21,0.01
2012-5-3,89,75,60,62,56,52,86,55,30,0.00,40.00,9,3,17,0.01
2012-5-4,80,68,59,60,54,47,87,63,45,0.00,40.00,9,2,22,0.00
2012-5-5,67,62,60,63,58,-100,98,91,73,0.00,40.00,4,1,9,0.60
2012-5-6,76,66,60,66,62,60,99,90,67,0.00,40.00,6,2,12,0.04
2012-5-7,67,62,60,64,60,57,100,94,83,0.00,40.00,6,4,14,0.09
2012-5-8,65,62,59,63,60,55,99,93,84,0.00,40.00,6,4,14,0.61
2012-5-9,65,59,53,62,54,45,100,86,68,0.00,40.00,4,2,12,0.51
2012-5-10,64,55,48,44,38,30,78,54,31,0.00,40.00,7,3,19,0.01
2012-5-11,72,57,43,40,33,29,68,43,24,0.00,40.00,7,3,13,0.00
2012-5-12,75,58,44,50,39,-100,73,52,34,0.00,40.00,6,2,13,0.00
2012-5-13,72,62,55,56,52,47,92,70,54,0.00,40.00,5,2,13,0.00
2012-5-14,60,58,56,60,58,55,99,99,95,0.00,40.00,6,2,12,1.80
2012-5-15,73,64,58,67,59,53,100,87,64,0.00,40.00,6,2,11,0.27
2012-5-16,79,66,54,60,53,46,98,68,33,0.00,40.00,4,2,12,0.05
2012-5-17,77,64,54,58,52,47,82,66,49,0.00,40.00,5,3,12,0.00
2012-5-18,76,62,51,51,47,43,80,59,40,0.00,40.00,4,2,10,0.00
2012-5-19,79,63,50,53,45,-100,83,56,33,0.00,40.00,3,2,9,0.00
2012-5-20,81,67,53,56,48,39,77,52,25,0.00,40.00,8,2,16,0.00
2012-5-21,83,65,57,63,56,50,98,74,41,0.00,40.00,7,2,16,1.70
2012-5-22,80,63,58,66,60,54,99,92,54,0.00,40.00,5,2,14,1.83
2012-5-23,71,63,58,67,61,58,99,93,74,0.00,40.00,4,1,8,0.11
2012-5-24,76,65,58,68,62,58,99,91,74,0.00,40.00,6,2,12,0.03
2012-5-25,85,71,62,70,62,58,98,76,47,0.00,40.00,4,2,9,0.00
2012-5-26,88,74,62,68,61,-100,93,69,41,0.00,40.00,3,2,7,0.00
2012-5-27,87,74,64,69,65,61,95,74,49,0.00,40.00,5,2,10,0.00
2012-5-28,88,74,64,69,65,61,93,74,52,0.00,40.00,5,2,13,0.00
2012-5-29,84,70,63,73,64,57,98,81,55,0.00,40.00,9,3,21,0.52
2012-5-30,84,72,63,72,58,45,99,67,26,0.00,40.00,6,2,14,0.52
2012-5-31,84,72,62,61,53,47,78,55,30,0.00,40.00,6,2,14,0.01
2012-6-1,70,63,57,68,58,49,97,86,69,0.00,40.00,6,3,18,0.36
2012-6-2,68,58,53,48,42,-100,76,58,40,0.00,40.00,6,3,17,0.14
2012-6-3,74,62,49,54,46,41,83,57,39,0.00,40.00,5,3,15,0.00
2012-6-4,78,65,58,52,48,43,77,56,31,0.00,40.00,5,3,16,0.00
2012-6-5,68,57,48,54,49,43,93,76,51,0.00,40.00,4,2,9,0.01
2012-6-6,68,57,52,57,53,51,97,87,65,0.00,40.00,3,1,7,0.21
2012-6-7,76,61,49,59,51,46,98,75,43,0.00,40.00,4,2,8,0.01
2012-6-8,82,66,50,55,47,42,87,54,30,0.00,40.00,5,2,13,0.00
2012-6-9,85,69,53,60,50,-100,83,55,34,0.00,40.00,4,2,10,0.00
2012-6-10,85,72,57,65,55,46,82,55,39,0.00,40.00,5,2,11,0.00
2012-6-11,70,65,61,66,59,48,97,83,57,0.00,40.00,4,1,7,0.41
2012-6-12,85,71,65,75,66,55,99,85,57,0.00,40.00,6,2,13,0.89
2012-6-13,81,70,61,62,56,43,94,62,35,0.00,40.00,5,2,10,0.03
2012-6-14,77,66,53,57,50,41,82,59,41,0.00,40.00,4,2,9,0.00
2012-6-15,77,67,58,60,55,49,93,67,41,0.00,40.00,4,2,9,0.00
2012-6-16,78,64,55,57,52,-100,89,69,44,0.00,40.00,3,1,7,0.00
2012-6-17,76,65,55,61,56,51,89,74,57,0.00,40.00,4,2,11,0.00
2012-6-18,81,68,61,70,64,58,98,86,60,0.00,40.00,5,3,11,0.03
2012-6-19,84,73,65,76,67,64,97,81,53,0.00,40.00,3,1,8,0.01
2012-6-20,92,79,65,71,66,63,97,68,40,0.00,40.00,3,2,7,0.01
2012-6-21,90,75,66,71,67,63,95,77,44,0.00,40.00,5,2,14,0.15
2012-6-22,85,71,65,73,66,58,98,86,51,0.00,40.00,5,2,17,1.01
2012-6-23,85,72,61,67,59,50,97,67,37,0.00,40.00,3,1,7,0.39
2012-6-24,86,73,60,66,57,48,74,59,42,0.00,40.00,4,1,8,0.00
2012-6-25,84,72,62,66,57,43,94,61,38,0.00,40.00,6,2,16,0.00
2012-6-26,77,64,51,46,43,39,69,47,30,0.00,40.00,7,4,14,0.00
2012-6-27,84,68,51,55,47,40,81,50,30,0.00,40.00,4,2,11,0.00
2012-6-28,91,75,58,60,55,46,73,52,33,0.00,40.00,6,2,16,0.00
2012-6-29,99,86,66,71,62,48,87,47,36,0.00,40.00,11,5,34,0.28
2012-6-30,94,81,62,71,64,59,96,60,39,0.00,40.00,7,3,17,0.28
2012-7-1,91,80,68,69,63,55,85,58,41,0.00,40.00,5,2,15,0.03
2012-7-2,91,77,65,65,60,56,90,59,34,0.00,40.00,5,3,16,0.03
2012-7-3,89,73,65,73,64,57,96,76,49,0.00,40.00,4,1,27,0.48
2012-7-4,93,78,65,73,66,59,98,70,39,0.00,40.00,3,2,10,0.05
2012-7-5,94,82,70,70,63,59,81,56,33,0.00,40.00,7,3,17,0.00
2012-7-6,93,78,69,83,67,61,86,70,52,0.00,40.00,4,1,9,0.03
2012-7-7,97,83,69,74,68,62,91,63,39,0.00,40.00,4,2,9,0.03
2012-7-8,95,82,71,74,67,62,84,61,41,0.00,40.00,6,2,12,0.00
2012-7-9,84,74,70,73,68,64,95,80,59,0.00,40.00,4,2,10,0.15
2012-7-10,87,75,66,70,61,53,95,64,32,0.00,40.00,4,1,10,0.50
2012-7-11,85,72,64,68,63,60,97,75,46,0.00,40.00,4,2,9,0.57
2012-7-12,83,70,62,63,58,51,97,70,35,0.00,40.00,4,1,12,0.00
2012-7-13,71,65,62,67,60,55,97,84,66,0.00,40.00,2,1,7,0.05
2012-7-14,87,70,62,74,63,56,97,79,55,0.00,40.00,7,2,16,0.54
2012-7-15,92,73,67,74,68,57,98,87,50,0.00,40.00,5,2,13,0.89
2012-7-16,90,78,68,71,65,59,96,67,39,0.00,40.00,3,2,14,0.01
2012-7-17,94,79,65,73,66,61,95,66,41,0.00,40.00,4,2,9,0.00
2012-7-18,89,78,70,73,68,64,88,71,52,0.00,40.00,4,2,13,0.00
2012-7-19,90,75,66,70,66,61,96,76,48,0.00,40.00,5,2,13,0.19
2012-7-20,76,70,66,72,68,65,96,93,84,0.00,40.00,4,2,11,0.42
2012-7-21,77,71,66,72,68,65,98,92,80,0.00,40.00,4,2,8,0.09
2012-7-22,85,72,65,73,67,64,97,86,63,0.00,40.00,4,2,13,0.01
2012-7-23,84,73,67,73,69,64,97,88,61,0.00,40.00,5,2,11,0.09
2012-7-24,83,75,70,74,68,63,93,80,65,0.00,40.00,8,4,19,0.32
2012-7-25,88,75,63,69,65,61,96,73,50,0.00,40.00,5,3,12,0.01
2012-7-26,93,82,73,72,67,60,85,63,40,0.00,40.00,7,4,19,0.00
2012-7-27,88,74,66,71,64,58,97,73,50,0.00,40.00,6,3,20,0.08
2012-7-28,85,74,66,73,63,55,98,71,39,0.00,40.00,5,2,14,0.06
2012-7-29,86,73,63,65,60,55,85,66,41,0.00,40.00,5,2,15,0.00
2012-7-30,87,73,65,69,63,59,94,74,45,0.00,40.00,3,1,9,0.11
2012-7-31,85,71,63,69,64,60,96,79,51,0.00,40.00,6,2,16,0.55
2012-8-1,86,69,60,71,64,59,98,87,57,0.00,40.00,5,2,10,0.54
2012-8-2,90,78,63,68,63,60,95,64,42,0.00,40.00,3,2,6,0.01
2012-8-3,88,76,66,73,68,63,96,77,57,0.00,40.00,6,2,12,0.00
2012-8-4,85,74,67,72,68,64,96,84,58,0.00,40.00,7,2,26,0.35
2012-8-5,82,72,67,73,69,66,98,92,69,0.00,40.00,6,3,12,0.42
2012-8-6,80,72,68,73,69,67,98,91,71,0.00,40.00,3,1,7,0.18
2012-8-7,82,74,67,73,69,66,98,85,58,0.00,40.00,3,1,7,0.00
2012-8-8,90,76,67,70,62,53,93,65,29,0.00,40.00,4,2,10,0.01
2012-8-9,88,75,63,68,64,58,94,70,48,0.00,40.00,5,2,12,0.00
2012-8-10,80,70,65,68,65,61,98,85,60,0.00,40.00,7,3,15,0.35
2012-8-11,85,71,63,62,55,-100,83,63,38,0.00,40.00,5,3,14,0.01
2012-8-12,81,68,57,57,53,50,86,60,37,0.00,40.00,3,2,10,0.00
2012-8-13,84,70,56,62,57,52,92,67,47,0.00,40.00,5,2,13,0.00
2012-8-14,82,70,63,69,65,59,97,85,64,0.00,40.00,4,2,10,0.37
2012-8-15,79,68,64,69,63,58,98,87,59,0.00,40.00,4,2,10,0.06
2012-8-16,83,69,58,64,58,52,96,73,41,0.00,40.00,4,2,8,0.00
2012-8-17,81,69,59,67,60,55,94,75,54,0.00,40.00,5,2,13,0.01
2012-8-18,83,70,58,59,55,50,87,63,39,0.00,40.00,5,2,9,0.01
2012-8-19,68,63,59,62,58,54,96,86,67,0.00,40.00,2,1,8,0.89
2012-8-20,75,65,56,63,57,51,97,78,56,0.00,40.00,3,1,9,0.05
2012-8-21,82,65,54,60,54,48,96,69,37,0.00,40.00,3,1,7,0.00
2012-8-22,83,67,57,64,57,51,92,73,44,0.00,40.00,3,1,6,0.00
2012-8-23,85,68,59,64,59,55,95,74,43,0.00,40.00,5,1,11,0.00
2012-8-24,82,68,58,65,59,56,96,75,50,0.00,40.00,4,1,10,0.00
2012-8-25,72,65,60,65,60,55,93,83,62,0.00,40.00,4,2,9,0.03
2012-8-26,80,67,62,69,62,57,97,84,64,0.00,40.00,4,2,8,0.31
2012-8-27,84,71,61,69,63,59,96,78,53,0.00,40.00,4,2,11,0.03
2012-8-28,87,74,65,68,59,51,88,64,34,0.00,40.00,4,2,10,0.00
2012-8-29,85,70,58,63,55,52,90,62,35,0.00,40.00,4,1,10,0.00
2012-8-30,87,72,61,67,61,54,86,70,46,0.00,40.00,4,2,10,0.00
2012-8-31,92,76,64,71,64,62,96,70,38,0.00,40.00,5,2,13,0.00
2012-9-1,85,75,70,72,68,63,96,79,57,0.00,40.00,2,1,10,0.05
2012-9-2,84,72,66,75,68,65,98,88,60,0.00,40.00,4,1,17,1.00
2012-9-3,72,69,67,71,68,66,98,97,92,0.00,40.00,1,0,6,0.97
2012-9-4,76,71,69,72,69,68,98,96,84,0.00,40.00,4,1,10,0.52
2012-9-5,82,73,69,76,70,66,98,92,64,0.00,40.00,5,2,10,0.34
2012-9-6,85,72,68,75,68,64,98,87,58,0.00,40.00,4,1,9,0.05
2012-9-7,86,72,63,73,64,61,97,80,45,0.00,40.00,4,1,9,0.02
2012-9-8,75,66,57,69,61,49,96,83,66,0.00,40.00,7,3,27,0.09
2012-9-9,74,58,49,56,47,43,95,70,40,0.00,40.00,4,2,12,0.02
2012-9-10,73,61,50,51,44,35,89,59,28,0.00,40.00,5,2,14,0.00
2012-9-11,77,60,45,51,46,39,88,63,39,0.00,40.00,3,1,9,0.00
2012-9-12,80,63,51,58,52,47,95,69,37,0.00,40.00,3,1,6,0.00
2012-9-13,80,64,52,59,52,46,94,68,30,0.00,40.00,3,1,7,0.00
2012-9-14,81,64,51,59,52,46,86,66,42,0.00,40.00,4,1,9,0.00
2012-9-15,78,65,57,57,53,47,92,67,42,0.00,40.00,4,2,9,0.00
2012-9-16,70,60,54,55,50,45,94,72,56,0.00,40.00,4,1,9,0.00
2012-9-17,65,60,55,60,58,54,97,93,79,0.00,40.00,4,1,9,0.50
2012-9-18,66,63,58,65,62,52,98,95,81,0.00,40.00,7,4,19,3.28
2012-9-19,69,57,49,50,45,41,90,68,37,0.00,40.00,5,1,10,0.04
2012-9-20,72,60,52,58,52,45,89,77,58,0.00,40.00,5,2,10,0.00
2012-9-21,77,63,53,62,56,52,97,79,50,0.00,40.00,4,2,10,0.00
2012-9-22,75,66,58,58,52,-100,93,64,44,0.00,40.00,9,5,19,0.00
2012-9-23,67,54,42,38,34,30,74,48,29,0.00,40.00,5,3,15,0.00
2012-9-24,69,52,39,43,37,33,89,60,27,0.00,40.00,5,2,12,0.00
2012-9-25,69,53,42,52,46,38,96,78,51,0.00,40.00,4,1,12,0.11
2012-9-26,78,62,48,64,54,47,97,80,52,0.00,40.00,6,2,15,0.02
2012-9-27,80,68,58,64,58,54,96,73,49,0.00,40.00,5,1,16,0.00
2012-9-28,67,64,60,65,59,56,96,86,70,0.00,40.00,4,1,15,0.14
2012-9-29,69,60,54,59,52,44,96,77,47,0.00,40.00,5,2,11,0.01
2012-9-30,69,56,43,51,44,40,93,68,44,0.00,40.00,6,2,17,0.00
2012-10-1,59,53,47,54,50,45,96,88,70,0.00,40.00,2,0,4,0.18
2012-10-2,66,60,54,65,59,53,97,97,96,0.00,40.00,2,1,7,0.97
2012-10-3,79,67,61,66,63,60,98,88,60,0.00,40.00,3,1,7,0.02
2012-10-4,74,65,61,63,54,45,94,70,41,0.00,40.00,5,2,17,0.01
2012-10-5,76,61,50,58,51,45,95,72,45,0.00,40.00,4,2,13,0.00
2012-10-6,67,57,46,54,46,33,91,68,46,0.00,40.00,6,3,16,0.00
2012-10-7,47,44,39,45,40,34,95,87,61,0.00,40.00,3,1,11,0.19
2012-10-8,44,40,35,40,37,33,95,90,76,0.00,40.00,2,1,6,0.04
2012-10-9,58,47,40,46,43,38,95,85,60,0.00,40.00,2,1,6,0.02
2012-10-10,61,52,43,46,42,34,95,71,50,0.00,40.00,7,3,20,0.00
2012-10-11,65,49,37,36,31,25,71,52,33,0.00,40.00,5,3,17,0.00
2012-10-12,67,53,45,38,35,32,72,51,28,0.00,40.00,5,3,13,0.00
2012-10-13,61,47,36,38,35,29,79,64,40,0.00,40.00,6,2,14,0.00
2012-10-14,69,55,43,52,46,39,89,73,49,0.00,40.00,6,3,14,0.00
2012-10-15,70,59,50,57,48,34,97,72,40,0.00,40.00,9,4,23,0.05
2012-10-16,68,54,46,37,32,27,64,47,24,0.00,40.00,6,3,17,0.03
2012-10-17,68,52,40,42,35,29,77,54,25,0.00,40.00,5,2,11,0.00
2012-10-18,61,53,46,54,47,41,96,81,68,0.00,40.00,6,3,14,0.24
2012-10-19,69,57,47,53,42,27,96,65,28,0.00,40.00,7,3,15,0.24
2012-10-20,58,50,44,36,34,30,66,54,37,0.00,40.00,5,3,14,0.00
2012-10-21,64,51,42,37,33,29,72,53,32,0.00,40.00,5,2,13,0.00
2012-10-22,76,56,40,45,38,31,83,53,32,0.00,40.00,4,2,9,0.00
2012-10-23,80,63,50,51,47,44,82,58,32,0.00,40.00,5,1,12,0.00
2012-10-24,78,65,55,53,47,41,80,54,30,0.00,40.00,4,2,11,0.00
2012-10-25,81,65,53,50,45,42,73,50,30,0.00,40.00,5,2,12,0.00
2012-10-26,76,62,54,56,51,45,91,67,38,0.00,40.00,4,2,9,0.00
2012-10-27,63,58,55,56,52,49,93,82,63,0.00,40.00,7,3,12,0.00
2012-10-28,56,52,44,48,44,39,83,73,57,0.00,40.00,9,6,19,0.01
2012-10-29,43,39,36,39,33,29,87,79,70,0.00,40.00,15,10,35,0.47
2012-10-30,37,35,33,30,26,23,75,69,64,0.00,40.00,16,10,37,0.14
2012-10-31,44,38,36,31,29,27,74,68,56,0.00,40.00,8,5,24,0.01
2012-11-1,44,40,37,30,28,26,68,62,54,0.00,40.00,8,6,20,0.00
2012-11-2,50,43,39,30,22,17,61,43,27,0.00,40.00,7,5,21,0.00
2012-11-3,47,39,35,33,25,23,90,57,42,0.00,40.00,7,4,18,0.06
2012-11-4,54,41,36,40,32,19,94,72,30,0.00,40.00,7,2,17,0.06
2012-11-5,51,39,31,25,21,17,65,51,29,0.00,40.00,6,3,13,0.00
2012-11-6,42,34,28,26,23,21,76,66,50,0.00,40.00,4,1,10,0.00
2012-11-7,41,35,29,28,25,22,77,67,54,0.00,40.00,3,2,7,0.00
2012-11-8,52,40,31,23,14,6,70,37,17,0.00,40.00,7,4,22,0.00
2012-11-9,62,46,32,29,25,20,70,47,24,0.00,40.00,4,2,11,0.00
2012-11-10,72,54,40,30,25,21,51,34,18,0.00,40.00,4,2,12,0.00
2012-11-11,70,57,45,41,30,24,57,37,22,0.00,40.00,8,3,17,0.00
2012-11-12,59,56,46,56,50,41,96,80,58,0.00,40.00,9,5,21,0.79
2012-11-13,47,39,32,38,26,19,91,61,37,0.00,40.00,7,5,22,0.97
2012-11-14,44,33,27,24,20,-100,77,62,44,0.00,40.00,5,2,8,0.02
2012-11-15,47,36,27,26,23,20,77,62,42,0.00,40.00,3,1,8,0.00
2012-11-16,55,40,29,31,24,16,85,55,27,0.00,40.00,4,2,11,0.00
2012-11-17,54,42,36,26,21,16,58,44,25,0.00,40.00,6,4,11,0.00
2012-11-18,52,42,37,31,25,20,70,51,37,0.00,40.00,4,3,12,0.00
2012-11-19,52,43,38,35,32,28,77,65,49,0.00,40.00,4,2,9,0.00
2012-11-20,54,41,33,38,33,30,92,75,49,0.00,40.00,3,1,5,0.00
2012-11-21,60,45,33,34,27,14,87,56,22,0.00,40.00,3,1,9,0.00
2012-11-22,61,46,33,27,22,18,64,41,20,0.00,40.00,3,2,7,0.00
2012-11-23,61,46,34,38,30,22,68,52,40,0.00,40.00,9,4,25,0.00
2012-11-24,38,30,27,21,14,11,58,52,44,0.00,40.00,8,5,25,0.00
2012-11-25,49,36,25,15,11,8,61,40,19,0.00,40.00,10,5,21,0.00
2012-11-26,51,43,41,21,14,11,35,31,27,0.00,40.00,7,6,23,0.00
2012-11-27,44,39,34,40,35,29,91,84,74,0.00,40.00,3,2,7,0.01
2012-11-28,44,36,32,29,20,14,74,53,33,0.00,40.00,6,4,19,0.01
2012-11-29,51,36,27,25,20,16,72,52,30,0.00,40.00,5,2,13,0.00
2012-11-30,56,41,30,27,22,16,61,48,30,0.00,40.00,4,2,9,0.00
2012-12-1,60,47,36,37,32,24,73,57,40,0.00,40.00,4,2,8,0.00
2012-12-2,63,50,40,45,38,34,79,65,40,0.00,40.00,6,3,19,0.00
2012-12-3,67,59,54,52,48,45,80,67,52,0.00,40.00,5,3,14,0.00
2012-12-4,68,57,48,52,47,45,95,73,48,0.00,40.00,5,2,13,0.00
2012-12-5,60,50,39,45,30,14,73,48,21,0.00,40.00,8,4,25,0.00
2012-12-6,47,36,28,28,23,-100,85,64,45,0.00,40.00,5,2,10,0.00
2012-12-7,52,43,35,41,34,28,88,73,59,0.00,40.00,4,1,11,0.00
2012-12-8,65,45,40,49,41,38,95,89,57,0.00,40.00,5,2,13,0.00
2012-12-9,57,53,50,52,49,46,94,87,78,0.00,40.00,3,2,7,0.06
2012-12-10,56,52,45,52,50,39,96,93,78,0.00,40.00,8,5,23,0.18
2012-12-11,40,36,29,34,27,20,79,70,52,0.00,40.00,7,3,20,0.06
2012-12-12,39,33,28,27,24,21,79,69,58,0.00,40.00,5,1,8,0.00
2012-12-13,47,34,27,22,17,13,69,51,27,0.00,40.00,4,2,9,0.00
2012-12-14,55,37,25,24,18,13,71,50,26,0.00,40.00,3,1,8,0.00
2012-12-15,55,43,36,36,23,18,89,46,26,0.00,40.00,5,2,14,0.01
2012-12-16,44,41,37,42,38,35,95,90,81,0.00,40.00,4,2,9,0.06
2012-12-17,49,46,42,48,44,41,96,94,87,0.00,40.00,7,2,20,0.24
2012-12-18,47,43,37,44,35,27,89,71,55,0.00,40.00,10,6,23,0.25
2012-12-19,55,46,37,32,27,23,62,48,32,0.00,40.00,9,5,22,0.01
2012-12-20,40,37,33,39,31,25,95,80,58,0.00,40.00,5,2,11,0.53
2012-12-21,41,31,26,40,22,16,96,70,59,0.00,40.00,12,8,26,0.46
2012-12-22,34,29,26,19,15,11,72,56,45,0.00,40.00,13,9,32,0.01
2012-12-23,50,37,26,21,16,9,50,42,31,0.00,40.00,9,5,25,0.00
2012-12-24,40,34,33,33,29,21,95,81,48,0.00,40.00,3,1,9,0.30
2012-12-25,49,42,37,41,33,29,96,70,53,0.00,40.00,7,3,14,0.28
2012-12-26,36,31,28,32,29,26,94,90,80,0.00,40.00,8,4,16,0.01
2012-12-27,36,31,28,32,21,16,85,65,52,0.00,40.00,13,8,27,0.20
2012-12-28,41,30,26,23,20,18,73,66,48,0.00,40.00,6,2,12,0.13
2012-12-29,42,32,29,34,25,18,93,75,56,0.00,40.00,8,4,22,0.31
2012-12-30,34,28,24,20,14,11,70,57,42,0.00,40.00,11,6,24,0.02
2012-12-31,41,32,22,18,12,8,69,47,26,0.00,40.00,7,3,19,0.06
2013-1-1,42,38,35,31,27,18,76,66,43,0.00,40.00,6,4,19,0.01